메인 페이지
METAR-TAF:

METAR-TAF

공항 :

오데사, 우크라이나

위도: 46-26N, 경도: 030-46E, 고도: 42m

현재 날씨관측

예보는 29분 전, 02:30시(UTC)에 발표되었습니다.
남남동12kt
온도 6°C
습도 87%
기압 1020 hPa
시정 10km 이상
1500m 미만 상공 구름 및 적란운 없음

METAR: UKOO 190230Z 15006MPS CAVOK 06/04 Q1020 R16/090060 NOSIG

시각: 04:59 (02:59 UTC)

예보

예보는 3 시간 53분 전, 23:06시(UTC)에 발표되었습니다.
예보 대상 시간: 19일 00시부터 19일 24시까지 (UTC)
14kt, 순간 최대 풍속 27kt
시정: 2100m
고도 700ft 상공 구름 많음
고도 2000ft 상공 구름 보통, 적란운.
박무
확률 40% :
일시적
19일 00시부터 19일 06시까지 (UTC)
시정: 0300m
고도 200ft 상공
안개
전환 중
19일 06시부터 19일 07시까지 (UTC)
시정: 6000m

TAF: UKOO 182306Z 1900/1924 17007G14MPS 2100 BR BKN007 SCT020CB TX11/1912Z TN03/1903Z PROB40 TEMPO 1900/1906 0300 FG VV002 BECMG 1906/1907 6000 NSW

4,000개 이상의 공항 관측 자료 및 예보 (METAR 및 TAF 보고).

지도상에서 검색 가능한 기상관측소가 노란 점과 빨간 점으로 표시되어 있습니다.

기상관측소 명을 보려면 표시 위로 마우스를 이동하세요.

날씨 관측과 예보를 보려면 클릭하세요.

지도 변경 : 확대하려면 엑스 표시가 있는 녹색 버튼, 축소하려면 빼기 표시가 있는 녹색 버튼, 다음 페이지의 지도를 보려면 녹색 화살표를 클릭하세요.


METAR-TAF: